Boone County Airport
KHRO : now visible

Airfield :











YOU CAN JOIN US ON...

 
LOGIN :

Register | Disclaimer

   EN    FR    IT 

 









Legend :    VFR   Marginal VFR   IFR   Intensive IFR   Very Intensive IFR
Visi :
Ceiling :
>= 8 km
>= 3000ft
5 to 8 km
1000 to 3000 ft
1500m to 5 km
500 to 1000 ft
800 to 1500m
200 to 500 ft
< 800m
< 200 ft
Symbols :   Thunderstorms  Fog  Heavy snow  Heavy precipitations  Wind > 20 kt






- Airport Elevation : 1365 ft
- IATA code : HRO


KHRO - Boone County

CURRENT METAR :
  • 211546Z AUTO 12005KT 10SM FEW002 19/17 A3013 RMK AO2 T01940172 $

EXPIRED METARs :
  • 211524Z AUTO 11005KT 3SM BR OVC002 18/17 A3013 RMK AO2 T01780167
  • 211512Z AUTO 13005KT 1/2SM FG VV002 17/16 A3014 RMK AO2 T01720161
  • 211459Z AUTO 13005KT 3/4SM BR VV002 17/17 A3014 RMK AO2 T01720167
  • 211453Z AUTO 14004KT 1/4SM FG VV002 17/16 A3014 RMK AO2 SLP199 T01670161 50007
  • 211416Z AUTO 15004KT 1/4SM FG VV002 16/15 A3014 RMK AO2 T01560150
  • 211407Z AUTO 00000KT 1/2SM FG OVC002 16/15 A3014 RMK AO2 T01560150
  • 211353Z AUTO 00000KT 1 3/4SM BR OVC002 15/14 A3014 RMK AO2 SLP199 T01500144
  • 211337Z AUTO 00000KT 1/2SM FG OVC002 14/14 A3013 RMK AO2 T01440139
  • 211253Z AUTO 00000KT 1/4SM FG VV001 14/13 A3013 RMK AO2 SLP196 T01390133 $

TAF KHRO
Valid from the 21 at 15:00 until the 22 at 12:00 UTC


211507Z 2115/2212 VRB03KT P6SM SCT004
TEMPO 2115/2116 1SM BR BKN004
FM211600 16010KT P6SM SCT030
FM220200 15005KT P6SM SKC
KZME FIR / North America



MET'MAP, your aeronautical weather chart ! - Copyright ORBIFLY December 2007 - Disclaimer

ORBIFLY MET'MAP TEAM :

Programming & Development : Alexandra Zaïnal
Concept & original design : Baudouin d'Aumeries
Assistance for programming : Marc-Olivier Méhu
Technical & hardware support : Manuel Goepfert

Contact : metmap@orbifly.com




SOURCES & CREDITS :

   NOAA       Earth
Advisory